Ubet, Wisconsin
Current Conditions -  °F | °C
As of 2:35 PM on Monday 24 Nov 2014 (Local Time) from KOEO Reporting Station
Overcast Overcast  
Wind Chill: 10°   Ceiling: 2300
Heat Index: 24°   Visibility: 10mi
Dew Point: 19°   Wind: 17mph
Humidity: 81%   Direction: 300°WNW
Pressure: 29.53"   Gusts: 30mph
Location:  45.3599°N, 92.5447°W
Report Text: KOEO 242035Z AUTO 30015G26KT 10SM OVC023 M05/M07 A2953 RMK AO2 T10471075
Loading
Personal Weather Stations






























Interactive Weather Map New forecast layout! Learn more

10-Day Weather Forecast

Advertisements
Track Severe Weather on mobile